LML weather

Public forecast

Using degrees Celsius for public forecast. Weather courtesy of forecast.io.

Closest aviation weather report (METAR) to Lae Island Airport

Closest report is Bucholz Army Air Field, 87.9 nm (162.7 km) E. Retrieved 2020/08/10 08:40 UTC (0 seconds ago):

PKWA 100840Z AUTO 07006KT 10SM CLR 27/27 A2991 RMK AO2 T02710268

Closest aviation forecast (TAF) to Lae Island Airport

Closest forecast is Bucholz Army Air Field, 87.9 nm (162.7 km) E. Retrieved 2020/08/10 06:55 UTC (2 hours ago):

TAF PKWA 100536Z 1006/1106 08011KT P6SM VCSH SCT016 SCT040